sensor_id;sensor_type;location;lat;lon;timestamp;P1;durP1;ratioP1;P2;durP2;ratioP2
57826;SDS011;43656;57.746;11.780;2023-04-25T00:01:58;21.45;;;17.52;;
57826;SDS011;43656;57.746;11.780;2023-04-25T00:04:24;21.60;;;18.10;;
57826;SDS011;43656;57.746;11.780;2023-04-25T00:06:50;19.50;;;17.27;;
57826;SDS011;43656;57.746;11.780;2023-04-25T00:09:17;22.42;;;18.30;;
57826;SDS011;43656;57.746;11.780;2023-04-25T00:11:42;21.05;;;18.10;;
57826;SDS011;43656;57.746;11.780;2023-04-25T00:14:08;23.10;;;18.58;;
57826;SDS011;43656;57.746;11.780;2023-04-25T00:16:33;23.73;;;19.13;;
57826;SDS011;43656;57.746;11.780;2023-04-25T00:19:00;21.25;;;18.15;;
57826;SDS011;43656;57.746;11.780;2023-04-25T00:21:28;22.30;;;18.35;;
57826;SDS011;43656;57.746;11.780;2023-04-25T00:23:54;19.70;;;17.58;;
57826;SDS011;43656;57.746;11.780;2023-04-25T00:26:20;23.48;;;18.17;;
57826;SDS011;43656;57.746;11.780;2023-04-25T00:28:46;21.63;;;18.25;;
57826;SDS011;43656;57.746;11.780;2023-04-25T00:31:12;21.88;;;18.60;;
57826;SDS011;43656;57.746;11.780;2023-04-25T00:33:38;23.60;;;18.00;;
57826;SDS011;43656;57.746;11.780;2023-04-25T00:36:03;25.90;;;19.13;;
57826;SDS011;43656;57.746;11.780;2023-04-25T00:38:29;23.10;;;18.60;;
57826;SDS011;43656;57.746;11.780;2023-04-25T00:40:54;24.38;;;19.13;;
57826;SDS011;43656;57.746;11.780;2023-04-25T00:43:21;25.33;;;19.48;;
57826;SDS011;43656;57.746;11.780;2023-04-25T00:45:46;24.88;;;19.10;;
57826;SDS011;43656;57.746;11.780;2023-04-25T00:48:14;27.80;;;19.77;;
57826;SDS011;43656;57.746;11.780;2023-04-25T00:50:39;24.90;;;19.40;;
57826;SDS011;43656;57.746;11.780;2023-04-25T00:53:06;25.02;;;19.40;;
57826;SDS011;43656;57.746;11.780;2023-04-25T00:55:31;28.50;;;19.85;;
57826;SDS011;43656;57.746;11.780;2023-04-25T00:57:59;25.45;;;20.42;;
57826;SDS011;43656;57.746;11.780;2023-04-25T01:00:25;25.67;;;20.27;;
57826;SDS011;43656;57.746;11.780;2023-04-25T01:02:50;27.73;;;20.52;;
57826;SDS011;43656;57.746;11.780;2023-04-25T01:05:16;28.35;;;20.92;;
57826;SDS011;43656;57.746;11.780;2023-04-25T01:07:43;27.45;;;21.50;;
57826;SDS011;43656;57.746;11.780;2023-04-25T01:10:10;30.98;;;21.65;;
57826;SDS011;43656;57.746;11.780;2023-04-25T01:12:35;32.60;;;22.85;;
57826;SDS011;43656;57.746;11.780;2023-04-25T01:15:01;33.63;;;22.42;;
57826;SDS011;43656;57.746;11.780;2023-04-25T01:17:27;32.75;;;23.38;;
57826;SDS011;43656;57.746;11.780;2023-04-25T01:19:53;32.13;;;23.38;;
57826;SDS011;43656;57.746;11.780;2023-04-25T01:22:18;35.22;;;23.80;;
57826;SDS011;43656;57.746;11.780;2023-04-25T01:24:44;40.20;;;24.83;;
57826;SDS011;43656;57.746;11.780;2023-04-25T01:27:10;40.28;;;25.00;;
57826;SDS011;43656;57.746;11.780;2023-04-25T01:29:36;36.70;;;25.13;;
57826;SDS011;43656;57.746;11.780;2023-04-25T01:32:02;37.42;;;24.92;;
57826;SDS011;43656;57.746;11.780;2023-04-25T01:34:28;35.30;;;24.75;;
57826;SDS011;43656;57.746;11.780;2023-04-25T01:36:54;35.55;;;24.25;;
57826;SDS011;43656;57.746;11.780;2023-04-25T01:39:20;34.83;;;24.15;;
57826;SDS011;43656;57.746;11.780;2023-04-25T01:41:46;37.42;;;25.38;;
57826;SDS011;43656;57.746;11.780;2023-04-25T01:44:13;35.80;;;26.10;;
57826;SDS011;43656;57.746;11.780;2023-04-25T01:46:39;34.42;;;26.20;;
57826;SDS011;43656;57.746;11.780;2023-04-25T01:49:05;35.42;;;25.85;;
57826;SDS011;43656;57.746;11.780;2023-04-25T01:51:31;37.38;;;26.90;;
57826;SDS011;43656;57.746;11.780;2023-04-25T01:53:57;37.50;;;26.23;;
57826;SDS011;43656;57.746;11.780;2023-04-25T01:56:22;42.78;;;26.85;;
57826;SDS011;43656;57.746;11.780;2023-04-25T01:58:48;36.30;;;25.38;;
57826;SDS011;43656;57.746;11.780;2023-04-25T02:01:14;37.40;;;26.27;;
57826;SDS011;43656;57.746;11.780;2023-04-25T02:03:39;38.75;;;25.20;;
57826;SDS011;43656;57.746;11.780;2023-04-25T02:06:05;36.08;;;25.10;;
57826;SDS011;43656;57.746;11.780;2023-04-25T02:08:30;34.88;;;25.65;;
57826;SDS011;43656;57.746;11.780;2023-04-25T02:10:56;34.95;;;24.45;;
57826;SDS011;43656;57.746;11.780;2023-04-25T02:13:22;33.72;;;24.30;;
57826;SDS011;43656;57.746;11.780;2023-04-25T02:15:47;33.67;;;23.88;;
57826;SDS011;43656;57.746;11.780;2023-04-25T02:18:13;32.50;;;23.83;;
57826;SDS011;43656;57.746;11.780;2023-04-25T02:20:40;33.22;;;23.35;;
57826;SDS011;43656;57.746;11.780;2023-04-25T02:23:06;28.70;;;22.38;;
57826;SDS011;43656;57.746;11.780;2023-04-25T02:25:32;31.83;;;23.17;;
57826;SDS011;43656;57.746;11.780;2023-04-25T02:27:57;29.30;;;21.80;;
57826;SDS011;43656;57.746;11.780;2023-04-25T02:30:22;31.65;;;22.60;;
57826;SDS011;43656;57.746;11.780;2023-04-25T02:32:48;29.13;;;22.05;;
57826;SDS011;43656;57.746;11.780;2023-04-25T02:35:13;29.80;;;22.38;;
57826;SDS011;43656;57.746;11.780;2023-04-25T02:37:39;28.50;;;21.45;;
57826;SDS011;43656;57.746;11.780;2023-04-25T02:40:05;27.75;;;21.48;;
57826;SDS011;43656;57.746;11.780;2023-04-25T02:42:31;30.65;;;23.02;;
57826;SDS011;43656;57.746;11.780;2023-04-25T02:44:56;30.27;;;22.85;;
57826;SDS011;43656;57.746;11.780;2023-04-25T02:47:22;33.65;;;23.25;;
57826;SDS011;43656;57.746;11.780;2023-04-25T02:49:47;29.17;;;22.08;;
57826;SDS011;43656;57.746;11.780;2023-04-25T02:52:13;32.55;;;23.75;;
57826;SDS011;43656;57.746;11.780;2023-04-25T02:54:39;32.13;;;22.60;;
57826;SDS011;43656;57.746;11.780;2023-04-25T02:57:05;30.85;;;22.23;;
57826;SDS011;43656;57.746;11.780;2023-04-25T02:59:30;32.83;;;22.90;;
57826;SDS011;43656;57.746;11.780;2023-04-25T03:01:56;31.38;;;22.55;;
57826;SDS011;43656;57.746;11.780;2023-04-25T03:04:21;30.23;;;22.90;;
57826;SDS011;43656;57.746;11.780;2023-04-25T03:06:48;33.15;;;22.65;;
57826;SDS011;43656;57.746;11.780;2023-04-25T03:09:14;34.65;;;23.52;;
57826;SDS011;43656;57.746;11.780;2023-04-25T03:11:40;32.15;;;23.15;;
57826;SDS011;43656;57.746;11.780;2023-04-25T03:14:05;32.92;;;21.98;;
57826;SDS011;43656;57.746;11.780;2023-04-25T03:16:31;35.65;;;24.15;;
57826;SDS011;43656;57.746;11.780;2023-04-25T03:18:56;36.22;;;23.05;;
57826;SDS011;43656;57.746;11.780;2023-04-25T03:21:22;34.40;;;24.00;;
57826;SDS011;43656;57.746;11.780;2023-04-25T03:23:48;32.55;;;23.40;;
57826;SDS011;43656;57.746;11.780;2023-04-25T03:26:13;37.20;;;23.38;;
57826;SDS011;43656;57.746;11.780;2023-04-25T03:28:39;33.95;;;23.60;;
57826;SDS011;43656;57.746;11.780;2023-04-25T03:31:05;37.85;;;25.02;;
57826;SDS011;43656;57.746;11.780;2023-04-25T03:33:30;41.70;;;25.25;;
57826;SDS011;43656;57.746;11.780;2023-04-25T03:35:56;37.45;;;25.52;;
57826;SDS011;43656;57.746;11.780;2023-04-25T03:38:21;35.35;;;25.23;;
57826;SDS011;43656;57.746;11.780;2023-04-25T03:40:47;36.33;;;24.85;;
57826;SDS011;43656;57.746;11.780;2023-04-25T03:43:12;37.83;;;25.55;;
57826;SDS011;43656;57.746;11.780;2023-04-25T03:45:37;38.22;;;26.20;;
57826;SDS011;43656;57.746;11.780;2023-04-25T03:48:03;39.42;;;24.85;;
57826;SDS011;43656;57.746;11.780;2023-04-25T03:50:29;38.67;;;26.10;;
57826;SDS011;43656;57.746;11.780;2023-04-25T03:52:54;40.90;;;25.50;;
57826;SDS011;43656;57.746;11.780;2023-04-25T03:55:20;40.85;;;25.85;;
57826;SDS011;43656;57.746;11.780;2023-04-25T03:57:45;35.33;;;24.45;;
57826;SDS011;43656;57.746;11.780;2023-04-25T04:00:11;41.58;;;24.55;;
57826;SDS011;43656;57.746;11.780;2023-04-25T04:02:38;37.85;;;25.63;;
57826;SDS011;43656;57.746;11.780;2023-04-25T04:05:04;42.33;;;25.65;;
57826;SDS011;43656;57.746;11.780;2023-04-25T04:07:30;40.35;;;26.55;;
57826;SDS011;43656;57.746;11.780;2023-04-25T04:09:57;45.30;;;26.02;;
57826;SDS011;43656;57.746;11.780;2023-04-25T04:12:23;45.67;;;25.95;;
57826;SDS011;43656;57.746;11.780;2023-04-25T04:14:49;43.80;;;25.92;;
57826;SDS011;43656;57.746;11.780;2023-04-25T04:17:14;44.50;;;25.70;;
57826;SDS011;43656;57.746;11.780;2023-04-25T04:19:39;44.80;;;24.17;;
57826;SDS011;43656;57.746;11.780;2023-04-25T04:22:07;44.17;;;23.75;;
57826;SDS011;43656;57.746;11.780;2023-04-25T04:24:32;39.38;;;22.67;;
57826;SDS011;43656;57.746;11.780;2023-04-25T04:26:58;37.25;;;22.33;;
57826;SDS011;43656;57.746;11.780;2023-04-25T04:29:24;36.97;;;21.45;;
57826;SDS011;43656;57.746;11.780;2023-04-25T04:31:50;34.45;;;21.08;;
57826;SDS011;43656;57.746;11.780;2023-04-25T04:34:17;33.28;;;19.88;;
57826;SDS011;43656;57.746;11.780;2023-04-25T04:36:43;28.35;;;18.08;;
57826;SDS011;43656;57.746;11.780;2023-04-25T04:39:11;29.25;;;18.05;;
57826;SDS011;43656;57.746;11.780;2023-04-25T04:41:37;27.52;;;17.80;;
57826;SDS011;43656;57.746;11.780;2023-04-25T04:44:03;25.45;;;16.33;;
57826;SDS011;43656;57.746;11.780;2023-04-25T04:46:28;20.70;;;12.90;;
57826;SDS011;43656;57.746;11.780;2023-04-25T04:48:55;20.35;;;11.07;;
57826;SDS011;43656;57.746;11.780;2023-04-25T04:51:21;17.30;;;10.25;;
57826;SDS011;43656;57.746;11.780;2023-04-25T04:53:46;17.70;;;10.32;;
57826;SDS011;43656;57.746;11.780;2023-04-25T04:56:12;14.23;;;9.45;;
57826;SDS011;43656;57.746;11.780;2023-04-25T04:58:37;14.40;;;9.43;;
57826;SDS011;43656;57.746;11.780;2023-04-25T05:01:03;13.05;;;8.55;;
57826;SDS011;43656;57.746;11.780;2023-04-25T05:03:28;12.73;;;8.38;;
57826;SDS011;43656;57.746;11.780;2023-04-25T05:05:54;12.65;;;7.47;;
57826;SDS011;43656;57.746;11.780;2023-04-25T05:08:20;12.13;;;7.65;;
57826;SDS011;43656;57.746;11.780;2023-04-25T05:10:45;14.15;;;8.20;;
57826;SDS011;43656;57.746;11.780;2023-04-25T05:13:10;12.13;;;8.30;;
57826;SDS011;43656;57.746;11.780;2023-04-25T05:15:36;12.75;;;8.30;;
57826;SDS011;43656;57.746;11.780;2023-04-25T05:18:01;13.57;;;9.05;;
57826;SDS011;43656;57.746;11.780;2023-04-25T05:20:27;16.10;;;9.50;;
57826;SDS011;43656;57.746;11.780;2023-04-25T05:22:52;12.88;;;9.18;;
57826;SDS011;43656;57.746;11.780;2023-04-25T05:25:18;18.55;;;10.73;;
57826;SDS011;43656;57.746;11.780;2023-04-25T05:27:43;18.75;;;10.85;;
57826;SDS011;43656;57.746;11.780;2023-04-25T05:30:08;19.45;;;11.55;;
57826;SDS011;43656;57.746;11.780;2023-04-25T05:32:34;16.38;;;10.15;;
57826;SDS011;43656;57.746;11.780;2023-04-25T05:35:00;17.48;;;11.02;;
57826;SDS011;43656;57.746;11.780;2023-04-25T05:37:26;19.05;;;9.90;;
57826;SDS011;43656;57.746;11.780;2023-04-25T05:39:51;16.10;;;7.40;;
57826;SDS011;43656;57.746;11.780;2023-04-25T05:42:17;13.85;;;5.90;;
57826;SDS011;43656;57.746;11.780;2023-04-25T05:44:42;14.70;;;5.10;;
57826;SDS011;43656;57.746;11.780;2023-04-25T05:47:08;14.35;;;4.15;;
57826;SDS011;43656;57.746;11.780;2023-04-25T05:49:34;16.05;;;4.65;;
57826;SDS011;43656;57.746;11.780;2023-04-25T05:51:59;14.32;;;3.75;;
57826;SDS011;43656;57.746;11.780;2023-04-25T05:54:25;17.80;;;4.18;;
57826;SDS011;43656;57.746;11.780;2023-04-25T05:56:50;12.00;;;3.58;;
57826;SDS011;43656;57.746;11.780;2023-04-25T05:59:16;15.82;;;3.50;;
57826;SDS011;43656;57.746;11.780;2023-04-25T06:01:41;14.38;;;3.22;;
57826;SDS011;43656;57.746;11.780;2023-04-25T06:04:07;13.52;;;3.30;;
57826;SDS011;43656;57.746;11.780;2023-04-25T06:06:32;9.57;;;2.42;;
57826;SDS011;43656;57.746;11.780;2023-04-25T06:08:58;14.52;;;2.88;;
57826;SDS011;43656;57.746;11.780;2023-04-25T06:11:23;13.25;;;2.85;;
57826;SDS011;43656;57.746;11.780;2023-04-25T06:13:48;11.80;;;2.70;;
57826;SDS011;43656;57.746;11.780;2023-04-25T06:16:14;8.82;;;2.30;;
57826;SDS011;43656;57.746;11.780;2023-04-25T06:18:40;9.73;;;2.28;;
57826;SDS011;43656;57.746;11.780;2023-04-25T06:21:05;6.97;;;2.20;;
57826;SDS011;43656;57.746;11.780;2023-04-25T06:23:31;7.07;;;1.75;;
57826;SDS011;43656;57.746;11.780;2023-04-25T06:25:56;7.78;;;1.70;;
57826;SDS011;43656;57.746;11.780;2023-04-25T06:28:22;8.40;;;1.80;;
57826;SDS011;43656;57.746;11.780;2023-04-25T06:30:49;9.00;;;1.52;;
57826;SDS011;43656;57.746;11.780;2023-04-25T06:33:15;4.85;;;1.23;;
57826;SDS011;43656;57.746;11.780;2023-04-25T06:35:40;8.25;;;1.55;;
57826;SDS011;43656;57.746;11.780;2023-04-25T06:38:06;6.93;;;1.80;;
57826;SDS011;43656;57.746;11.780;2023-04-25T06:40:31;7.10;;;1.30;;
57826;SDS011;43656;57.746;11.780;2023-04-25T06:42:56;8.52;;;1.80;;
57826;SDS011;43656;57.746;11.780;2023-04-25T06:45:22;7.40;;;1.50;;
57826;SDS011;43656;57.746;11.780;2023-04-25T06:47:48;10.10;;;1.40;;
57826;SDS011;43656;57.746;11.780;2023-04-25T06:50:13;7.75;;;1.30;;
57826;SDS011;43656;57.746;11.780;2023-04-25T06:52:38;9.43;;;1.38;;
57826;SDS011;43656;57.746;11.780;2023-04-25T06:55:04;10.07;;;1.20;;
57826;SDS011;43656;57.746;11.780;2023-04-25T06:57:30;7.07;;;1.10;;
57826;SDS011;43656;57.746;11.780;2023-04-25T06:59:56;5.72;;;1.10;;
57826;SDS011;43656;57.746;11.780;2023-04-25T07:02:21;9.38;;;1.13;;
57826;SDS011;43656;57.746;11.780;2023-04-25T07:04:47;4.78;;;1.05;;
57826;SDS011;43656;57.746;11.780;2023-04-25T07:07:13;11.45;;;1.00;;
57826;SDS011;43656;57.746;11.780;2023-04-25T07:09:38;7.00;;;1.10;;
57826;SDS011;43656;57.746;11.780;2023-04-25T07:12:04;9.05;;;0.93;;
57826;SDS011;43656;57.746;11.780;2023-04-25T07:14:29;6.80;;;1.00;;
57826;SDS011;43656;57.746;11.780;2023-04-25T07:16:55;5.72;;;0.98;;
57826;SDS011;43656;57.746;11.780;2023-04-25T07:19:23;5.65;;;0.80;;
57826;SDS011;43656;57.746;11.780;2023-04-25T07:21:51;5.93;;;0.90;;
57826;SDS011;43656;57.746;11.780;2023-04-25T07:24:17;4.40;;;0.88;;
57826;SDS011;43656;57.746;11.780;2023-04-25T07:26:42;4.25;;;0.70;;
57826;SDS011;43656;57.746;11.780;2023-04-25T07:29:08;6.20;;;0.80;;
57826;SDS011;43656;57.746;11.780;2023-04-25T07:31:33;3.42;;;0.77;;
57826;SDS011;43656;57.746;11.780;2023-04-25T07:33:59;7.18;;;0.80;;
57826;SDS011;43656;57.746;11.780;2023-04-25T07:36:24;4.32;;;0.95;;
57826;SDS011;43656;57.746;11.780;2023-04-25T07:38:51;5.82;;;0.70;;
57826;SDS011;43656;57.746;11.780;2023-04-25T07:41:16;2.72;;;0.60;;
57826;SDS011;43656;57.746;11.780;2023-04-25T07:43:42;4.03;;;0.70;;
57826;SDS011;43656;57.746;11.780;2023-04-25T07:46:07;3.65;;;0.50;;
57826;SDS011;43656;57.746;11.780;2023-04-25T07:48:33;3.60;;;0.60;;
57826;SDS011;43656;57.746;11.780;2023-04-25T07:50:58;4.15;;;0.50;;
57826;SDS011;43656;57.746;11.780;2023-04-25T07:53:23;5.28;;;0.40;;
57826;SDS011;43656;57.746;11.780;2023-04-25T07:55:49;4.20;;;0.40;;
57826;SDS011;43656;57.746;11.780;2023-04-25T07:58:15;4.38;;;0.50;;
57826;SDS011;43656;57.746;11.780;2023-04-25T08:00:46;3.13;;;0.38;;
57826;SDS011;43656;57.746;11.780;2023-04-25T08:03:11;2.70;;;0.50;;
57826;SDS011;43656;57.746;11.780;2023-04-25T08:05:37;3.65;;;0.40;;
57826;SDS011;43656;57.746;11.780;2023-04-25T08:08:02;3.20;;;0.43;;
57826;SDS011;43656;57.746;11.780;2023-04-25T08:10:28;2.90;;;0.45;;
57826;SDS011;43656;57.746;11.780;2023-04-25T08:12:53;2.88;;;0.47;;
57826;SDS011;43656;57.746;11.780;2023-04-25T08:15:19;4.57;;;0.52;;
57826;SDS011;43656;57.746;11.780;2023-04-25T08:17:44;4.50;;;0.50;;
57826;SDS011;43656;57.746;11.780;2023-04-25T08:20:10;4.10;;;0.50;;
57826;SDS011;43656;57.746;11.780;2023-04-25T08:22:36;1.25;;;0.40;;
57826;SDS011;43656;57.746;11.780;2023-04-25T08:25:02;2.88;;;0.40;;
57826;SDS011;43656;57.746;11.780;2023-04-25T08:27:27;2.58;;;0.30;;
57826;SDS011;43656;57.746;11.780;2023-04-25T08:29:54;2.78;;;0.30;;
57826;SDS011;43656;57.746;11.780;2023-04-25T08:32:20;3.75;;;0.75;;
57826;SDS011;43656;57.746;11.780;2023-04-25T08:34:46;4.05;;;1.13;;
57826;SDS011;43656;57.746;11.780;2023-04-25T08:37:12;8.05;;;3.70;;
57826;SDS011;43656;57.746;11.780;2023-04-25T08:39:37;9.38;;;2.90;;
57826;SDS011;43656;57.746;11.780;2023-04-25T08:42:04;3.97;;;0.80;;
57826;SDS011;43656;57.746;11.780;2023-04-25T08:44:35;6.97;;;4.88;;
57826;SDS011;43656;57.746;11.780;2023-04-25T08:47:04;11.52;;;2.83;;
57826;SDS011;43656;57.746;11.780;2023-04-25T08:49:33;5.80;;;2.95;;
57826;SDS011;43656;57.746;11.780;2023-04-25T08:52:00;5.32;;;1.90;;
57826;SDS011;43656;57.746;11.780;2023-04-25T08:54:29;36.85;;;28.02;;
57826;SDS011;43656;57.746;11.780;2023-04-25T08:56:56;58.25;;;35.38;;
57826;SDS011;43656;57.746;11.780;2023-04-25T08:59:23;22.60;;;14.35;;
57826;SDS011;43656;57.746;11.780;2023-04-25T09:01:49;60.05;;;38.10;;
57826;SDS011;43656;57.746;11.780;2023-04-25T09:04:15;25.30;;;15.60;;
57826;SDS011;43656;57.746;11.780;2023-04-25T09:06:40;12.02;;;6.32;;
57826;SDS011;43656;57.746;11.780;2023-04-25T09:09:07;20.80;;;13.25;;
57826;SDS011;43656;57.746;11.780;2023-04-25T09:11:34;15.57;;;10.55;;
57826;SDS011;43656;57.746;11.780;2023-04-25T09:16:58;9.90;;;4.95;;
57826;SDS011;43656;57.746;11.780;2023-04-25T09:21:59;9.00;;;0.93;;
57826;SDS011;43656;57.746;11.780;2023-04-25T09:24:36;3.58;;;0.45;;
57826;SDS011;43656;57.746;11.780;2023-04-25T09:27:09;10.30;;;2.40;;
57826;SDS011;43656;57.746;11.780;2023-04-25T09:29:36;4.78;;;0.80;;
57826;SDS011;43656;57.746;11.780;2023-04-25T09:34:48;4.15;;;0.90;;
57826;SDS011;43656;57.746;11.780;2023-04-25T09:37:22;3.08;;;0.82;;
57826;SDS011;43656;57.746;11.780;2023-04-25T09:39:55;3.30;;;0.50;;
57826;SDS011;43656;57.746;11.780;2023-04-25T09:42:24;3.65;;;0.40;;
57826;SDS011;43656;57.746;11.780;2023-04-25T09:44:54;5.20;;;0.45;;
57826;SDS011;43656;57.746;11.780;2023-04-25T09:47:22;2.35;;;0.38;;
57826;SDS011;43656;57.746;11.780;2023-04-25T09:49:48;5.18;;;0.55;;
57826;SDS011;43656;57.746;11.780;2023-04-25T09:52:16;3.53;;;0.68;;
57826;SDS011;43656;57.746;11.780;2023-04-25T09:54:44;4.93;;;0.60;;
57826;SDS011;43656;57.746;11.780;2023-04-25T09:57:16;2.15;;;0.28;;
57826;SDS011;43656;57.746;11.780;2023-04-25T09:59:45;2.67;;;0.30;;
57826;SDS011;43656;57.746;11.780;2023-04-25T10:02:12;4.95;;;0.40;;
57826;SDS011;43656;57.746;11.780;2023-04-25T10:04:40;2.40;;;0.30;;
57826;SDS011;43656;57.746;11.780;2023-04-25T10:07:07;4.90;;;0.50;;
57826;SDS011;43656;57.746;11.780;2023-04-25T10:09:36;4.97;;;0.40;;
57826;SDS011;43656;57.746;11.780;2023-04-25T10:12:02;1.60;;;0.30;;
57826;SDS011;43656;57.746;11.780;2023-04-25T10:14:31;3.20;;;0.30;;
57826;SDS011;43656;57.746;11.780;2023-04-25T10:16:57;2.40;;;0.40;;
57826;SDS011;43656;57.746;11.780;2023-04-25T10:19:24;2.85;;;0.40;;
57826;SDS011;43656;57.746;11.780;2023-04-25T10:21:52;2.20;;;0.35;;
57826;SDS011;43656;57.746;11.780;2023-04-25T10:24:18;0.98;;;0.30;;
57826;SDS011;43656;57.746;11.780;2023-04-25T10:26:45;3.15;;;0.52;;
57826;SDS011;43656;57.746;11.780;2023-04-25T10:29:11;3.60;;;0.50;;
57826;SDS011;43656;57.746;11.780;2023-04-25T10:31:55;3.58;;;0.50;;
57826;SDS011;43656;57.746;11.780;2023-04-25T10:34:40;3.88;;;0.30;;
57826;SDS011;43656;57.746;11.780;2023-04-25T10:37:11;3.15;;;0.50;;
57826;SDS011;43656;57.746;11.780;2023-04-25T10:39:39;3.75;;;0.50;;
57826;SDS011;43656;57.746;11.780;2023-04-25T10:42:06;2.28;;;0.60;;
57826;SDS011;43656;57.746;11.780;2023-04-25T10:44:33;9.68;;;4.97;;
57826;SDS011;43656;57.746;11.780;2023-04-25T10:46:59;16.38;;;7.72;;
57826;SDS011;43656;57.746;11.780;2023-04-25T10:52:11;13.38;;;11.63;;
57826;SDS011;43656;57.746;11.780;2023-04-25T10:54:56;7.07;;;2.72;;
57826;SDS011;43656;57.746;11.780;2023-04-25T10:59:57;3.72;;;0.60;;
57826;SDS011;43656;57.746;11.780;2023-04-25T11:02:26;1.83;;;0.60;;
57826;SDS011;43656;57.746;11.780;2023-04-25T11:04:53;3.17;;;0.47;;
57826;SDS011;43656;57.746;11.780;2023-04-25T11:09:47;2.72;;;0.50;;
57826;SDS011;43656;57.746;11.780;2023-04-25T11:12:14;3.30;;;0.30;;
57826;SDS011;43656;57.746;11.780;2023-04-25T11:14:41;1.90;;;0.40;;
57826;SDS011;43656;57.746;11.780;2023-04-25T11:17:06;3.28;;;0.60;;
57826;SDS011;43656;57.746;11.780;2023-04-25T11:19:32;3.65;;;0.50;;
57826;SDS011;43656;57.746;11.780;2023-04-25T11:21:58;1.33;;;0.50;;
57826;SDS011;43656;57.746;11.780;2023-04-25T11:24:34;4.93;;;0.60;;
57826;SDS011;43656;57.746;11.780;2023-04-25T11:27:01;1.48;;;0.43;;
57826;SDS011;43656;57.746;11.780;2023-04-25T11:29:28;1.65;;;0.88;;
57826;SDS011;43656;57.746;11.780;2023-04-25T11:31:54;1.05;;;0.38;;
57826;SDS011;43656;57.746;11.780;2023-04-25T11:34:22;2.70;;;0.50;;
57826;SDS011;43656;57.746;11.780;2023-04-25T11:36:50;2.05;;;0.40;;
57826;SDS011;43656;57.746;11.780;2023-04-25T11:39:17;1.80;;;0.60;;
57826;SDS011;43656;57.746;11.780;2023-04-25T11:41:43;4.95;;;0.80;;
57826;SDS011;43656;57.746;11.780;2023-04-25T11:44:09;2.33;;;0.70;;
57826;SDS011;43656;57.746;11.780;2023-04-25T11:46:34;6.05;;;0.80;;
57826;SDS011;43656;57.746;11.780;2023-04-25T11:49:00;5.25;;;0.57;;
57826;SDS011;43656;57.746;11.780;2023-04-25T11:51:25;5.97;;;1.55;;
57826;SDS011;43656;57.746;11.780;2023-04-25T11:53:51;2.45;;;0.70;;
57826;SDS011;43656;57.746;11.780;2023-04-25T11:56:17;3.63;;;0.75;;
57826;SDS011;43656;57.746;11.780;2023-04-25T12:01:49;3.67;;;0.43;;
57826;SDS011;43656;57.746;11.780;2023-04-25T12:04:19;1.87;;;0.90;;
57826;SDS011;43656;57.746;11.780;2023-04-25T12:06:47;2.28;;;0.40;;
57826;SDS011;43656;57.746;11.780;2023-04-25T12:09:19;3.22;;;0.55;;
57826;SDS011;43656;57.746;11.780;2023-04-25T12:14:20;5.40;;;0.60;;
57826;SDS011;43656;57.746;11.780;2023-04-25T12:16:48;4.28;;;0.50;;
57826;SDS011;43656;57.746;11.780;2023-04-25T12:19:18;1.00;;;0.30;;
57826;SDS011;43656;57.746;11.780;2023-04-25T12:21:45;1.70;;;0.40;;
57826;SDS011;43656;57.746;11.780;2023-04-25T12:24:11;1.85;;;0.40;;
57826;SDS011;43656;57.746;11.780;2023-04-25T12:26:52;4.03;;;0.40;;
57826;SDS011;43656;57.746;11.780;2023-04-25T12:31:50;1.48;;;0.47;;
57826;SDS011;43656;57.746;11.780;2023-04-25T12:34:17;3.55;;;0.45;;
57826;SDS011;43656;57.746;11.780;2023-04-25T12:36:43;1.85;;;0.68;;
57826;SDS011;43656;57.746;11.780;2023-04-25T12:39:13;3.15;;;0.55;;
57826;SDS011;43656;57.746;11.780;2023-04-25T12:41:50;2.53;;;0.35;;
57826;SDS011;43656;57.746;11.780;2023-04-25T12:44:19;1.73;;;0.45;;
57826;SDS011;43656;57.746;11.780;2023-04-25T12:46:46;1.17;;;0.40;;
57826;SDS011;43656;57.746;11.780;2023-04-25T12:49:11;0.93;;;0.40;;
57826;SDS011;43656;57.746;11.780;2023-04-25T12:51:37;3.38;;;0.43;;
57826;SDS011;43656;57.746;11.780;2023-04-25T12:54:03;1.63;;;0.43;;
57826;SDS011;43656;57.746;11.780;2023-04-25T12:56:30;1.85;;;0.70;;
57826;SDS011;43656;57.746;11.780;2023-04-25T12:58:56;1.25;;;0.40;;
57826;SDS011;43656;57.746;11.780;2023-04-25T13:01:22;2.20;;;0.32;;
57826;SDS011;43656;57.746;11.780;2023-04-25T13:03:48;2.17;;;0.40;;
57826;SDS011;43656;57.746;11.780;2023-04-25T13:06:14;2.50;;;0.32;;
57826;SDS011;43656;57.746;11.780;2023-04-25T13:08:40;0.85;;;0.40;;
57826;SDS011;43656;57.746;11.780;2023-04-25T13:11:06;1.30;;;0.40;;
57826;SDS011;43656;57.746;11.780;2023-04-25T13:13:32;1.58;;;0.40;;
57826;SDS011;43656;57.746;11.780;2023-04-25T13:15:59;1.98;;;0.40;;
57826;SDS011;43656;57.746;11.780;2023-04-25T13:18:27;3.47;;;0.40;;
57826;SDS011;43656;57.746;11.780;2023-04-25T13:20:53;1.55;;;0.30;;
57826;SDS011;43656;57.746;11.780;2023-04-25T13:23:19;1.65;;;0.40;;
57826;SDS011;43656;57.746;11.780;2023-04-25T13:25:45;2.00;;;0.50;;
57826;SDS011;43656;57.746;11.780;2023-04-25T13:28:11;0.60;;;0.40;;
57826;SDS011;43656;57.746;11.780;2023-04-25T13:30:37;0.82;;;0.43;;
57826;SDS011;43656;57.746;11.780;2023-04-25T13:33:02;1.00;;;0.40;;
57826;SDS011;43656;57.746;11.780;2023-04-25T13:35:28;0.98;;;0.35;;
57826;SDS011;43656;57.746;11.780;2023-04-25T13:37:55;1.38;;;0.38;;
57826;SDS011;43656;57.746;11.780;2023-04-25T13:40:21;0.95;;;0.47;;
57826;SDS011;43656;57.746;11.780;2023-04-25T13:42:47;1.30;;;0.40;;
57826;SDS011;43656;57.746;11.780;2023-04-25T13:45:12;1.02;;;0.40;;
57826;SDS011;43656;57.746;11.780;2023-04-25T13:47:38;1.15;;;0.45;;
57826;SDS011;43656;57.746;11.780;2023-04-25T13:50:03;0.88;;;0.40;;
57826;SDS011;43656;57.746;11.780;2023-04-25T13:52:33;3.72;;;0.40;;
57826;SDS011;43656;57.746;11.780;2023-04-25T13:54:58;2.05;;;0.52;;
57826;SDS011;43656;57.746;11.780;2023-04-25T13:57:24;1.70;;;0.50;;
57826;SDS011;43656;57.746;11.780;2023-04-25T13:59:50;2.22;;;0.40;;
57826;SDS011;43656;57.746;11.780;2023-04-25T14:02:16;0.77;;;0.40;;
57826;SDS011;43656;57.746;11.780;2023-04-25T14:04:41;1.95;;;0.40;;
57826;SDS011;43656;57.746;11.780;2023-04-25T14:07:07;2.53;;;0.40;;
57826;SDS011;43656;57.746;11.780;2023-04-25T14:09:32;1.88;;;0.43;;
57826;SDS011;43656;57.746;11.780;2023-04-25T14:11:58;2.45;;;0.70;;
57826;SDS011;43656;57.746;11.780;2023-04-25T14:14:23;2.67;;;0.43;;
57826;SDS011;43656;57.746;11.780;2023-04-25T14:16:49;1.35;;;0.40;;
57826;SDS011;43656;57.746;11.780;2023-04-25T14:19:15;1.90;;;0.40;;
57826;SDS011;43656;57.746;11.780;2023-04-25T14:21:42;0.40;;;0.30;;
57826;SDS011;43656;57.746;11.780;2023-04-25T14:24:10;1.58;;;0.47;;
57826;SDS011;43656;57.746;11.780;2023-04-25T14:26:36;1.95;;;0.30;;
57826;SDS011;43656;57.746;11.780;2023-04-25T14:29:02;1.05;;;0.30;;
57826;SDS011;43656;57.746;11.780;2023-04-25T14:31:28;1.80;;;0.50;;
57826;SDS011;43656;57.746;11.780;2023-04-25T14:33:54;2.05;;;0.52;;
57826;SDS011;43656;57.746;11.780;2023-04-25T14:36:19;1.08;;;0.32;;
57826;SDS011;43656;57.746;11.780;2023-04-25T14:38:45;2.58;;;0.30;;
57826;SDS011;43656;57.746;11.780;2023-04-25T14:41:11;0.47;;;0.20;;
57826;SDS011;43656;57.746;11.780;2023-04-25T14:43:37;2.70;;;0.40;;